sensor_id;sensor_type;location;lat;lon;timestamp;P1;durP1;ratioP1;P2;durP2;ratioP2
14052;SDS011;7101;51.600;7.310;2023-06-24T07:50:02;7.93;;;5.28;;
14052;SDS011;7101;51.600;7.310;2023-06-24T07:52:32;9.40;;;5.47;;
14052;SDS011;7101;51.600;7.310;2023-06-24T07:54:59;7.03;;;5.60;;
14052;SDS011;7101;51.600;7.310;2023-06-24T07:57:31;7.88;;;5.20;;
14052;SDS011;7101;51.600;7.310;2023-06-24T07:59:59;5.85;;;5.00;;
14052;SDS011;7101;51.600;7.310;2023-06-24T08:02:33;7.03;;;5.20;;
14052;SDS011;7101;51.600;7.310;2023-06-24T08:05:02;6.85;;;5.13;;
14052;SDS011;7101;51.600;7.310;2023-06-24T08:07:32;9.25;;;5.85;;
14052;SDS011;7101;51.600;7.310;2023-06-24T08:09:58;10.40;;;6.03;;
14052;SDS011;7101;51.600;7.310;2023-06-24T08:12:31;7.10;;;6.15;;
14052;SDS011;7101;51.600;7.310;2023-06-24T08:14:58;6.95;;;6.25;;
14052;SDS011;7101;51.600;7.310;2023-06-24T08:17:28;8.43;;;6.15;;
14052;SDS011;7101;51.600;7.310;2023-06-24T08:19:56;8.05;;;6.95;;
14052;SDS011;7101;51.600;7.310;2023-06-24T08:22:26;7.90;;;6.72;;
14052;SDS011;7101;51.600;7.310;2023-06-24T08:24:54;7.00;;;6.30;;
14052;SDS011;7101;51.600;7.310;2023-06-24T08:29:53;8.00;;;5.85;;
14052;SDS011;7101;51.600;7.310;2023-06-24T08:32:20;8.25;;;6.47;;
14052;SDS011;7101;51.600;7.310;2023-06-24T08:34:48;11.65;;;6.95;;
14052;SDS011;7101;51.600;7.310;2023-06-24T08:37:15;8.07;;;5.72;;
14052;SDS011;7101;51.600;7.310;2023-06-24T08:39:44;7.07;;;5.68;;
14052;SDS011;7101;51.600;7.310;2023-06-24T08:42:11;7.78;;;6.60;;
14052;SDS011;7101;51.600;7.310;2023-06-24T08:44:38;9.82;;;6.82;;
14052;SDS011;7101;51.600;7.310;2023-06-24T08:47:05;8.38;;;6.28;;
14052;SDS011;7101;51.600;7.310;2023-06-24T08:49:36;8.98;;;6.55;;
14052;SDS011;7101;51.600;7.310;2023-06-24T08:52:16;9.88;;;7.43;;
14052;SDS011;7101;51.600;7.310;2023-06-24T08:54:47;12.68;;;6.90;;
14052;SDS011;7101;51.600;7.310;2023-06-24T08:57:16;15.60;;;7.40;;
14052;SDS011;7101;51.600;7.310;2023-06-24T08:59:43;10.02;;;7.53;;
14052;SDS011;7101;51.600;7.310;2023-06-24T09:02:10;9.57;;;7.25;;
14052;SDS011;7101;51.600;7.310;2023-06-24T09:04:39;11.45;;;8.50;;
14052;SDS011;7101;51.600;7.310;2023-06-24T09:07:06;9.52;;;7.13;;
14052;SDS011;7101;51.600;7.310;2023-06-24T09:09:35;10.35;;;7.13;;
14052;SDS011;7101;51.600;7.310;2023-06-24T09:12:11;8.65;;;7.53;;
14052;SDS011;7101;51.600;7.310;2023-06-24T09:14:42;11.63;;;7.68;;
14052;SDS011;7101;51.600;7.310;2023-06-24T09:17:17;8.48;;;7.20;;
14052;SDS011;7101;51.600;7.310;2023-06-24T09:19:50;8.27;;;7.10;;
14052;SDS011;7101;51.600;7.310;2023-06-24T09:22:17;10.10;;;7.47;;
14052;SDS011;7101;51.600;7.310;2023-06-24T09:24:46;9.07;;;8.00;;
14052;SDS011;7101;51.600;7.310;2023-06-24T09:27:22;11.20;;;7.70;;
14052;SDS011;7101;51.600;7.310;2023-06-24T09:29:51;10.32;;;7.20;;
14052;SDS011;7101;51.600;7.310;2023-06-24T09:32:18;12.32;;;7.78;;
14052;SDS011;7101;51.600;7.310;2023-06-24T09:34:45;10.50;;;7.25;;
14052;SDS011;7101;51.600;7.310;2023-06-24T09:37:20;10.02;;;6.57;;
14052;SDS011;7101;51.600;7.310;2023-06-24T09:39:48;13.30;;;7.30;;
14052;SDS011;7101;51.600;7.310;2023-06-24T09:42:20;8.70;;;6.35;;
14052;SDS011;7101;51.600;7.310;2023-06-24T09:44:53;9.98;;;6.43;;
14052;SDS011;7101;51.600;7.310;2023-06-24T09:47:21;6.80;;;4.93;;
14052;SDS011;7101;51.600;7.310;2023-06-24T09:49:51;6.28;;;4.80;;
14052;SDS011;7101;51.600;7.310;2023-06-24T09:52:18;6.43;;;5.22;;
14052;SDS011;7101;51.600;7.310;2023-06-24T09:54:50;7.32;;;5.45;;
14052;SDS011;7101;51.600;7.310;2023-06-24T09:57:19;6.97;;;5.20;;
14052;SDS011;7101;51.600;7.310;2023-06-24T09:59:54;7.35;;;5.97;;
14052;SDS011;7101;51.600;7.310;2023-06-24T10:02:27;7.03;;;5.75;;
14052;SDS011;7101;51.600;7.310;2023-06-24T10:04:55;8.57;;;4.88;;
14052;SDS011;7101;51.600;7.310;2023-06-24T10:07:23;8.45;;;5.53;;
14052;SDS011;7101;51.600;7.310;2023-06-24T10:09:52;6.60;;;5.25;;
14052;SDS011;7101;51.600;7.310;2023-06-24T10:12:20;7.18;;;4.70;;
14052;SDS011;7101;51.600;7.310;2023-06-24T10:14:53;5.40;;;4.55;;
14052;SDS011;7101;51.600;7.310;2023-06-24T10:17:21;9.90;;;4.72;;
14052;SDS011;7101;51.600;7.310;2023-06-24T10:19:47;5.93;;;4.30;;
14052;SDS011;7101;51.600;7.310;2023-06-24T10:22:21;8.30;;;4.30;;
14052;SDS011;7101;51.600;7.310;2023-06-24T10:24:58;5.85;;;4.03;;
14052;SDS011;7101;51.600;7.310;2023-06-24T10:27:29;7.32;;;4.10;;
14052;SDS011;7101;51.600;7.310;2023-06-24T10:30:04;5.97;;;3.88;;
14052;SDS011;7101;51.600;7.310;2023-06-24T10:32:39;3.80;;;3.30;;
14052;SDS011;7101;51.600;7.310;2023-06-24T10:35:23;5.55;;;3.35;;
14052;SDS011;7101;51.600;7.310;2023-06-24T10:37:56;4.38;;;3.20;;
14052;SDS011;7101;51.600;7.310;2023-06-24T10:40:38;3.80;;;3.13;;
14052;SDS011;7101;51.600;7.310;2023-06-24T10:46:00;4.72;;;3.40;;
14052;SDS011;7101;51.600;7.310;2023-06-24T10:48:27;4.90;;;3.30;;
14052;SDS011;7101;51.600;7.310;2023-06-24T10:50:54;3.72;;;3.00;;
14052;SDS011;7101;51.600;7.310;2023-06-24T10:53:23;5.18;;;3.33;;
14052;SDS011;7101;51.600;7.310;2023-06-24T10:56:00;3.72;;;3.22;;
14052;SDS011;7101;51.600;7.310;2023-06-24T10:58:29;5.75;;;3.10;;
14052;SDS011;7101;51.600;7.310;2023-06-24T11:01:06;4.90;;;3.15;;
14052;SDS011;7101;51.600;7.310;2023-06-24T11:03:34;5.60;;;3.45;;
14052;SDS011;7101;51.600;7.310;2023-06-24T11:06:03;3.90;;;3.30;;
14052;SDS011;7101;51.600;7.310;2023-06-24T11:08:31;4.78;;;3.35;;
14052;SDS011;7101;51.600;7.310;2023-06-24T11:10:58;6.50;;;3.15;;
14052;SDS011;7101;51.600;7.310;2023-06-24T11:13:31;3.83;;;3.20;;
14052;SDS011;7101;51.600;7.310;2023-06-24T11:16:01;4.57;;;3.47;;
14052;SDS011;7101;51.600;7.310;2023-06-24T11:18:28;5.93;;;3.80;;
14052;SDS011;7101;51.600;7.310;2023-06-24T11:21:08;4.47;;;3.05;;
14052;SDS011;7101;51.600;7.310;2023-06-24T11:23:35;3.30;;;2.85;;
14052;SDS011;7101;51.600;7.310;2023-06-24T11:26:03;3.58;;;3.20;;
14052;SDS011;7101;51.600;7.310;2023-06-24T11:28:32;3.75;;;3.00;;
14052;SDS011;7101;51.600;7.310;2023-06-24T11:31:05;5.18;;;3.20;;
14052;SDS011;7101;51.600;7.310;2023-06-24T11:33:34;5.57;;;3.28;;
14052;SDS011;7101;51.600;7.310;2023-06-24T11:36:01;5.15;;;3.22;;
14052;SDS011;7101;51.600;7.310;2023-06-24T11:38:35;4.95;;;2.92;;
14052;SDS011;7101;51.600;7.310;2023-06-24T11:41:02;3.75;;;3.42;;
14052;SDS011;7101;51.600;7.310;2023-06-24T11:43:35;4.50;;;3.15;;
14052;SDS011;7101;51.600;7.310;2023-06-24T11:46:02;4.82;;;2.88;;
14052;SDS011;7101;51.600;7.310;2023-06-24T11:48:28;5.30;;;3.13;;
14052;SDS011;7101;51.600;7.310;2023-06-24T11:50:57;3.97;;;3.08;;
14052;SDS011;7101;51.600;7.310;2023-06-24T11:53:30;7.47;;;3.50;;
14052;SDS011;7101;51.600;7.310;2023-06-24T11:56:06;4.38;;;3.20;;
14052;SDS011;7101;51.600;7.310;2023-06-24T11:58:35;4.88;;;3.25;;
14052;SDS011;7101;51.600;7.310;2023-06-24T12:01:02;3.85;;;3.13;;
14052;SDS011;7101;51.600;7.310;2023-06-24T12:03:32;4.25;;;3.17;;
14052;SDS011;7101;51.600;7.310;2023-06-24T12:06:00;6.47;;;3.13;;
14052;SDS011;7101;51.600;7.310;2023-06-24T12:08:29;3.78;;;2.90;;
14052;SDS011;7101;51.600;7.310;2023-06-24T12:10:57;3.85;;;2.97;;
14052;SDS011;7101;51.600;7.310;2023-06-24T12:13:24;6.18;;;3.28;;
14052;SDS011;7101;51.600;7.310;2023-06-24T12:15:52;3.70;;;3.03;;
14052;SDS011;7101;51.600;7.310;2023-06-24T12:18:20;3.83;;;3.00;;
14052;SDS011;7101;51.600;7.310;2023-06-24T12:20:48;3.67;;;3.13;;
14052;SDS011;7101;51.600;7.310;2023-06-24T12:23:15;4.05;;;2.95;;
14052;SDS011;7101;51.600;7.310;2023-06-24T12:25:42;4.78;;;2.65;;
14052;SDS011;7101;51.600;7.310;2023-06-24T12:28:09;5.10;;;2.80;;
14052;SDS011;7101;51.600;7.310;2023-06-24T12:30:36;4.65;;;3.30;;
14052;SDS011;7101;51.600;7.310;2023-06-24T12:33:04;6.18;;;3.10;;
14052;SDS011;7101;51.600;7.310;2023-06-24T12:35:33;4.18;;;2.78;;
14052;SDS011;7101;51.600;7.310;2023-06-24T12:38:00;4.15;;;3.03;;
14052;SDS011;7101;51.600;7.310;2023-06-24T12:40:27;7.90;;;3.65;;
14052;SDS011;7101;51.600;7.310;2023-06-24T12:42:56;4.05;;;3.10;;
14052;SDS011;7101;51.600;7.310;2023-06-24T12:45:25;6.25;;;3.08;;
14052;SDS011;7101;51.600;7.310;2023-06-24T12:47:55;5.50;;;3.60;;
14052;SDS011;7101;51.600;7.310;2023-06-24T12:50:24;4.60;;;3.40;;
14052;SDS011;7101;51.600;7.310;2023-06-24T12:52:52;5.97;;;3.20;;
14052;SDS011;7101;51.600;7.310;2023-06-24T12:55:23;4.22;;;3.30;;
14052;SDS011;7101;51.600;7.310;2023-06-24T12:57:52;6.20;;;3.03;;
14052;SDS011;7101;51.600;7.310;2023-06-24T13:00:19;3.30;;;2.70;;
14052;SDS011;7101;51.600;7.310;2023-06-24T13:02:47;4.25;;;2.95;;
14052;SDS011;7101;51.600;7.310;2023-06-24T13:05:16;4.47;;;2.95;;
14052;SDS011;7101;51.600;7.310;2023-06-24T13:07:46;3.67;;;2.80;;
14052;SDS011;7101;51.600;7.310;2023-06-24T13:10:14;4.93;;;3.13;;
14052;SDS011;7101;51.600;7.310;2023-06-24T13:12:42;3.78;;;3.03;;
14052;SDS011;7101;51.600;7.310;2023-06-24T13:15:17;3.53;;;2.97;;
14052;SDS011;7101;51.600;7.310;2023-06-24T13:17:44;3.47;;;3.00;;
14052;SDS011;7101;51.600;7.310;2023-06-24T13:20:12;4.65;;;2.92;;
14052;SDS011;7101;51.600;7.310;2023-06-24T13:22:39;3.65;;;2.88;;
14052;SDS011;7101;51.600;7.310;2023-06-24T13:25:07;3.72;;;2.70;;
14052;SDS011;7101;51.600;7.310;2023-06-24T13:27:35;4.47;;;2.75;;
14052;SDS011;7101;51.600;7.310;2023-06-24T13:30:08;3.67;;;2.78;;
14052;SDS011;7101;51.600;7.310;2023-06-24T13:32:36;4.70;;;2.78;;
14052;SDS011;7101;51.600;7.310;2023-06-24T13:35:05;3.33;;;2.97;;
14052;SDS011;7101;51.600;7.310;2023-06-24T13:37:32;3.85;;;3.22;;
14052;SDS011;7101;51.600;7.310;2023-06-24T13:39:59;3.15;;;2.60;;
14052;SDS011;7101;51.600;7.310;2023-06-24T13:42:27;2.83;;;2.45;;
14052;SDS011;7101;51.600;7.310;2023-06-24T13:45:00;4.57;;;2.97;;
14052;SDS011;7101;51.600;7.310;2023-06-24T13:47:27;4.20;;;3.00;;
14052;SDS011;7101;51.600;7.310;2023-06-24T13:49:54;4.05;;;2.92;;
14052;SDS011;7101;51.600;7.310;2023-06-24T13:52:22;3.22;;;2.65;;
14052;SDS011;7101;51.600;7.310;2023-06-24T13:54:49;3.55;;;2.72;;
14052;SDS011;7101;51.600;7.310;2023-06-24T13:57:21;4.63;;;2.70;;
14052;SDS011;7101;51.600;7.310;2023-06-24T13:59:50;3.67;;;2.70;;
14052;SDS011;7101;51.600;7.310;2023-06-24T14:02:17;3.45;;;2.58;;
14052;SDS011;7101;51.600;7.310;2023-06-24T14:04:44;3.85;;;2.60;;
14052;SDS011;7101;51.600;7.310;2023-06-24T14:07:13;3.97;;;2.95;;
14052;SDS011;7101;51.600;7.310;2023-06-24T14:09:40;4.15;;;2.67;;
14052;SDS011;7101;51.600;7.310;2023-06-24T14:12:08;4.15;;;3.05;;
14052;SDS011;7101;51.600;7.310;2023-06-24T14:14:35;4.00;;;2.92;;
14052;SDS011;7101;51.600;7.310;2023-06-24T14:17:09;3.17;;;2.80;;
14052;SDS011;7101;51.600;7.310;2023-06-24T14:19:37;3.35;;;3.05;;
14052;SDS011;7101;51.600;7.310;2023-06-24T14:22:05;5.45;;;2.92;;
14052;SDS011;7101;51.600;7.310;2023-06-24T14:24:33;3.65;;;2.80;;
14052;SDS011;7101;51.600;7.310;2023-06-24T14:27:01;4.85;;;3.03;;
14052;SDS011;7101;51.600;7.310;2023-06-24T14:29:27;3.20;;;2.85;;
14052;SDS011;7101;51.600;7.310;2023-06-24T14:31:54;5.38;;;3.15;;
14052;SDS011;7101;51.600;7.310;2023-06-24T14:34:23;3.45;;;2.78;;
14052;SDS011;7101;51.600;7.310;2023-06-24T14:36:50;4.35;;;3.00;;
14052;SDS011;7101;51.600;7.310;2023-06-24T14:39:18;5.43;;;3.00;;
14052;SDS011;7101;51.600;7.310;2023-06-24T14:41:45;4.85;;;2.83;;
14052;SDS011;7101;51.600;7.310;2023-06-24T14:44:11;3.13;;;2.72;;
14052;SDS011;7101;51.600;7.310;2023-06-24T14:46:38;3.85;;;2.50;;
14052;SDS011;7101;51.600;7.310;2023-06-24T14:49:05;4.32;;;2.90;;
14052;SDS011;7101;51.600;7.310;2023-06-24T14:51:33;4.65;;;3.00;;
14052;SDS011;7101;51.600;7.310;2023-06-24T14:54:06;5.07;;;2.80;;
14052;SDS011;7101;51.600;7.310;2023-06-24T14:56:33;4.50;;;2.83;;
14052;SDS011;7101;51.600;7.310;2023-06-24T14:59:00;4.43;;;3.00;;
14052;SDS011;7101;51.600;7.310;2023-06-24T15:01:27;3.28;;;2.83;;
14052;SDS011;7101;51.600;7.310;2023-06-24T15:03:54;5.10;;;2.67;;
14052;SDS011;7101;51.600;7.310;2023-06-24T15:06:21;3.63;;;2.80;;
14052;SDS011;7101;51.600;7.310;2023-06-24T15:08:51;3.38;;;2.70;;
14052;SDS011;7101;51.600;7.310;2023-06-24T15:11:21;3.83;;;3.28;;
14052;SDS011;7101;51.600;7.310;2023-06-24T15:13:48;4.07;;;3.05;;
14052;SDS011;7101;51.600;7.310;2023-06-24T15:16:15;3.28;;;2.78;;
14052;SDS011;7101;51.600;7.310;2023-06-24T15:18:47;4.47;;;2.95;;
14052;SDS011;7101;51.600;7.310;2023-06-24T15:21:15;3.88;;;2.85;;
14052;SDS011;7101;51.600;7.310;2023-06-24T15:23:42;3.70;;;3.00;;
14052;SDS011;7101;51.600;7.310;2023-06-24T15:26:10;3.78;;;2.95;;
14052;SDS011;7101;51.600;7.310;2023-06-24T15:28:37;5.35;;;3.08;;
14052;SDS011;7101;51.600;7.310;2023-06-24T15:31:05;4.28;;;2.83;;
14052;SDS011;7101;51.600;7.310;2023-06-24T15:33:32;3.47;;;2.60;;
14052;SDS011;7101;51.600;7.310;2023-06-24T15:35:59;3.85;;;2.80;;
14052;SDS011;7101;51.600;7.310;2023-06-24T15:38:26;3.45;;;2.78;;
14052;SDS011;7101;51.600;7.310;2023-06-24T15:40:53;2.80;;;2.50;;
14052;SDS011;7101;51.600;7.310;2023-06-24T15:43:21;3.38;;;3.08;;
14052;SDS011;7101;51.600;7.310;2023-06-24T15:45:48;3.72;;;2.80;;
14052;SDS011;7101;51.600;7.310;2023-06-24T15:50:21;3.88;;;2.95;;
14052;SDS011;7101;51.600;7.310;2023-06-24T15:52:49;3.95;;;3.00;;
14052;SDS011;7101;51.600;7.310;2023-06-24T15:57:51;3.60;;;3.15;;
14052;SDS011;7101;51.600;7.310;2023-06-24T16:00:19;3.75;;;3.35;;
14052;SDS011;7101;51.600;7.310;2023-06-24T16:02:47;6.18;;;2.60;;
14052;SDS011;7101;51.600;7.310;2023-06-24T16:05:14;6.38;;;2.70;;
14052;SDS011;7101;51.600;7.310;2023-06-24T16:07:42;6.85;;;3.00;;
14052;SDS011;7101;51.600;7.310;2023-06-24T16:10:09;3.97;;;2.83;;
14052;SDS011;7101;51.600;7.310;2023-06-24T16:12:37;3.92;;;3.03;;
14052;SDS011;7101;51.600;7.310;2023-06-24T16:15:04;5.40;;;3.75;;
14052;SDS011;7101;51.600;7.310;2023-06-24T16:17:32;5.63;;;3.05;;
14052;SDS011;7101;51.600;7.310;2023-06-24T16:19:59;3.50;;;2.85;;
14052;SDS011;7101;51.600;7.310;2023-06-24T16:22:26;3.97;;;2.63;;
14052;SDS011;7101;51.600;7.310;2023-06-24T16:24:54;4.82;;;2.90;;
14052;SDS011;7101;51.600;7.310;2023-06-24T16:27:22;3.58;;;2.97;;
14052;SDS011;7101;51.600;7.310;2023-06-24T16:29:49;2.88;;;2.47;;
14052;SDS011;7101;51.600;7.310;2023-06-24T16:32:17;4.10;;;2.72;;
14052;SDS011;7101;51.600;7.310;2023-06-24T16:34:44;3.08;;;2.50;;
14052;SDS011;7101;51.600;7.310;2023-06-24T16:37:13;5.35;;;3.35;;
14052;SDS011;7101;51.600;7.310;2023-06-24T16:39:47;3.10;;;2.80;;
14052;SDS011;7101;51.600;7.310;2023-06-24T16:42:16;3.97;;;3.30;;
14052;SDS011;7101;51.600;7.310;2023-06-24T16:44:43;2.88;;;2.58;;
14052;SDS011;7101;51.600;7.310;2023-06-24T16:47:12;6.25;;;2.60;;
14052;SDS011;7101;51.600;7.310;2023-06-24T16:49:39;4.00;;;3.08;;
14052;SDS011;7101;51.600;7.310;2023-06-24T16:52:08;3.33;;;2.80;;
14052;SDS011;7101;51.600;7.310;2023-06-24T16:54:35;3.45;;;2.97;;
14052;SDS011;7101;51.600;7.310;2023-06-24T16:57:02;3.90;;;2.53;;
14052;SDS011;7101;51.600;7.310;2023-06-24T16:59:32;2.85;;;2.55;;
14052;SDS011;7101;51.600;7.310;2023-06-24T17:01:59;2.95;;;2.55;;
14052;SDS011;7101;51.600;7.310;2023-06-24T17:04:26;3.85;;;2.60;;
14052;SDS011;7101;51.600;7.310;2023-06-24T17:06:53;3.45;;;2.50;;
14052;SDS011;7101;51.600;7.310;2023-06-24T17:09:21;2.88;;;2.33;;
14052;SDS011;7101;51.600;7.310;2023-06-24T17:11:47;3.53;;;2.60;;
14052;SDS011;7101;51.600;7.310;2023-06-24T17:14:20;3.05;;;2.60;;
14052;SDS011;7101;51.600;7.310;2023-06-24T17:16:49;4.65;;;2.60;;
14052;SDS011;7101;51.600;7.310;2023-06-24T17:19:16;3.30;;;2.75;;
14052;SDS011;7101;51.600;7.310;2023-06-24T17:21:43;3.08;;;2.75;;
14052;SDS011;7101;51.600;7.310;2023-06-24T17:24:10;4.00;;;3.20;;
14052;SDS011;7101;51.600;7.310;2023-06-24T17:26:39;2.97;;;2.65;;
14052;SDS011;7101;51.600;7.310;2023-06-24T17:29:08;4.72;;;2.90;;
14052;SDS011;7101;51.600;7.310;2023-06-24T17:31:34;3.72;;;2.85;;
14052;SDS011;7101;51.600;7.310;2023-06-24T17:34:03;2.78;;;2.45;;
14052;SDS011;7101;51.600;7.310;2023-06-24T17:36:30;3.30;;;2.83;;
14052;SDS011;7101;51.600;7.310;2023-06-24T17:38:57;3.08;;;2.65;;
14052;SDS011;7101;51.600;7.310;2023-06-24T17:41:24;3.17;;;2.88;;
14052;SDS011;7101;51.600;7.310;2023-06-24T17:43:53;4.28;;;2.80;;
14052;SDS011;7101;51.600;7.310;2023-06-24T17:46:23;3.55;;;2.58;;
14052;SDS011;7101;51.600;7.310;2023-06-24T17:48:50;4.60;;;3.20;;
14052;SDS011;7101;51.600;7.310;2023-06-24T17:51:18;3.13;;;2.83;;
14052;SDS011;7101;51.600;7.310;2023-06-24T17:53:46;3.92;;;2.83;;
14052;SDS011;7101;51.600;7.310;2023-06-24T17:56:18;3.88;;;2.72;;
14052;SDS011;7101;51.600;7.310;2023-06-24T17:58:47;3.30;;;2.83;;
14052;SDS011;7101;51.600;7.310;2023-06-24T18:01:15;4.38;;;3.00;;
14052;SDS011;7101;51.600;7.310;2023-06-24T18:03:43;4.45;;;2.85;;
14052;SDS011;7101;51.600;7.310;2023-06-24T18:06:15;3.25;;;2.80;;
14052;SDS011;7101;51.600;7.310;2023-06-24T18:08:45;3.33;;;2.80;;
14052;SDS011;7101;51.600;7.310;2023-06-24T18:11:13;4.78;;;2.90;;
14052;SDS011;7101;51.600;7.310;2023-06-24T18:13:40;4.75;;;2.80;;
14052;SDS011;7101;51.600;7.310;2023-06-24T18:16:07;4.32;;;3.10;;
14052;SDS011;7101;51.600;7.310;2023-06-24T18:18:36;5.60;;;3.20;;
14052;SDS011;7101;51.600;7.310;2023-06-24T18:21:02;4.20;;;2.67;;
14052;SDS011;7101;51.600;7.310;2023-06-24T18:23:29;4.18;;;3.08;;
14052;SDS011;7101;51.600;7.310;2023-06-24T18:25:58;4.32;;;2.80;;
14052;SDS011;7101;51.600;7.310;2023-06-24T18:28:25;3.35;;;2.80;;
14052;SDS011;7101;51.600;7.310;2023-06-24T18:30:52;3.45;;;2.80;;
14052;SDS011;7101;51.600;7.310;2023-06-24T18:33:20;4.25;;;2.75;;
14052;SDS011;7101;51.600;7.310;2023-06-24T18:35:49;4.35;;;3.08;;
14052;SDS011;7101;51.600;7.310;2023-06-24T18:38:16;3.47;;;2.90;;
14052;SDS011;7101;51.600;7.310;2023-06-24T18:40:45;4.35;;;2.85;;
14052;SDS011;7101;51.600;7.310;2023-06-24T18:43:13;2.97;;;2.58;;
14052;SDS011;7101;51.600;7.310;2023-06-24T18:45:45;5.47;;;2.80;;
14052;SDS011;7101;51.600;7.310;2023-06-24T18:48:12;4.80;;;2.72;;
14052;SDS011;7101;51.600;7.310;2023-06-24T18:50:41;3.10;;;2.80;;
14052;SDS011;7101;51.600;7.310;2023-06-24T18:53:16;3.28;;;2.80;;
14052;SDS011;7101;51.600;7.310;2023-06-24T18:55:43;3.25;;;2.78;;
14052;SDS011;7101;51.600;7.310;2023-06-24T18:58:14;4.97;;;2.90;;
14052;SDS011;7101;51.600;7.310;2023-06-24T19:00:42;2.85;;;2.58;;
14052;SDS011;7101;51.600;7.310;2023-06-24T19:03:15;6.22;;;3.47;;
14052;SDS011;7101;51.600;7.310;2023-06-24T19:05:49;3.33;;;2.95;;
14052;SDS011;7101;51.600;7.310;2023-06-24T19:08:17;3.50;;;2.90;;
14052;SDS011;7101;51.600;7.310;2023-06-24T19:10:49;3.17;;;2.72;;
14052;SDS011;7101;51.600;7.310;2023-06-24T19:13:23;3.85;;;3.00;;
14052;SDS011;7101;51.600;7.310;2023-06-24T19:15:50;5.75;;;3.00;;
14052;SDS011;7101;51.600;7.310;2023-06-24T19:18:19;3.50;;;3.13;;
14052;SDS011;7101;51.600;7.310;2023-06-24T19:20:53;3.85;;;3.15;;
14052;SDS011;7101;51.600;7.310;2023-06-24T19:23:29;3.08;;;2.78;;
14052;SDS011;7101;51.600;7.310;2023-06-24T19:26:04;5.15;;;3.40;;
14052;SDS011;7101;51.600;7.310;2023-06-24T19:28:34;5.43;;;3.13;;
14052;SDS011;7101;51.600;7.310;2023-06-24T19:31:01;3.30;;;3.00;;
14052;SDS011;7101;51.600;7.310;2023-06-24T19:33:36;6.00;;;2.92;;
14052;SDS011;7101;51.600;7.310;2023-06-24T19:36:03;3.25;;;2.65;;
14052;SDS011;7101;51.600;7.310;2023-06-24T19:38:33;5.10;;;3.00;;
14052;SDS011;7101;51.600;7.310;2023-06-24T19:40:59;6.88;;;3.20;;
14052;SDS011;7101;51.600;7.310;2023-06-24T19:43:40;4.38;;;3.10;;
14052;SDS011;7101;51.600;7.310;2023-06-24T19:46:12;3.75;;;3.20;;
14052;SDS011;7101;51.600;7.310;2023-06-24T19:48:40;3.75;;;3.20;;
14052;SDS011;7101;51.600;7.310;2023-06-24T19:51:16;4.22;;;3.38;;
14052;SDS011;7101;51.600;7.310;2023-06-24T19:53:43;4.90;;;3.55;;
14052;SDS011;7101;51.600;7.310;2023-06-24T19:56:21;4.85;;;3.67;;
14052;SDS011;7101;51.600;7.310;2023-06-24T19:59:01;4.50;;;3.55;;
14052;SDS011;7101;51.600;7.310;2023-06-24T20:01:35;4.18;;;3.38;;
14052;SDS011;7101;51.600;7.310;2023-06-24T20:04:05;5.47;;;4.13;;
14052;SDS011;7101;51.600;7.310;2023-06-24T20:06:33;4.65;;;3.63;;
14052;SDS011;7101;51.600;7.310;2023-06-24T20:09:05;4.03;;;3.33;;
14052;SDS011;7101;51.600;7.310;2023-06-24T20:11:33;4.50;;;3.00;;
14052;SDS011;7101;51.600;7.310;2023-06-24T20:14:02;8.55;;;3.50;;
14052;SDS011;7101;51.600;7.310;2023-06-24T20:16:31;4.68;;;3.50;;
14052;SDS011;7101;51.600;7.310;2023-06-24T20:18:58;3.70;;;3.30;;
14052;SDS011;7101;51.600;7.310;2023-06-24T20:21:25;4.50;;;3.35;;
14052;SDS011;7101;51.600;7.310;2023-06-24T20:23:56;6.63;;;3.38;;
14052;SDS011;7101;51.600;7.310;2023-06-24T20:26:25;3.90;;;3.50;;
14052;SDS011;7101;51.600;7.310;2023-06-24T20:28:53;5.07;;;3.85;;
14052;SDS011;7101;51.600;7.310;2023-06-24T20:31:27;4.30;;;3.70;;
14052;SDS011;7101;51.600;7.310;2023-06-24T20:33:55;5.15;;;3.78;;
14052;SDS011;7101;51.600;7.310;2023-06-24T20:36:22;6.93;;;3.80;;
14052;SDS011;7101;51.600;7.310;2023-06-24T20:38:51;4.65;;;3.35;;
14052;SDS011;7101;51.600;7.310;2023-06-24T20:41:21;15.27;;;4.47;;
14052;SDS011;7101;51.600;7.310;2023-06-24T20:43:52;6.75;;;3.65;;
14052;SDS011;7101;51.600;7.310;2023-06-24T20:46:30;3.90;;;3.13;;
14052;SDS011;7101;51.600;7.310;2023-06-24T20:48:57;5.05;;;3.53;;
14052;SDS011;7101;51.600;7.310;2023-06-24T20:51:25;4.20;;;3.47;;
14052;SDS011;7101;51.600;7.310;2023-06-24T20:54:01;5.55;;;3.40;;
14052;SDS011;7101;51.600;7.310;2023-06-24T20:56:28;4.10;;;3.60;;
14052;SDS011;7101;51.600;7.310;2023-06-24T20:58:58;5.57;;;3.30;;
14052;SDS011;7101;51.600;7.310;2023-06-24T21:01:31;4.95;;;3.78;;
14052;SDS011;7101;51.600;7.310;2023-06-24T21:04:04;3.55;;;3.08;;
14052;SDS011;7101;51.600;7.310;2023-06-24T21:06:32;8.13;;;3.85;;
14052;SDS011;7101;51.600;7.310;2023-06-24T21:09:08;4.45;;;3.78;;
14052;SDS011;7101;51.600;7.310;2023-06-24T21:11:44;4.28;;;3.70;;
14052;SDS011;7101;51.600;7.310;2023-06-24T21:14:17;6.13;;;4.35;;
14052;SDS011;7101;51.600;7.310;2023-06-24T21:16:46;5.10;;;4.22;;
14052;SDS011;7101;51.600;7.310;2023-06-24T21:19:13;4.70;;;4.00;;
14052;SDS011;7101;51.600;7.310;2023-06-24T21:21:40;5.03;;;4.20;;
14052;SDS011;7101;51.600;7.310;2023-06-24T21:24:07;6.40;;;4.63;;
14052;SDS011;7101;51.600;7.310;2023-06-24T21:26:35;5.00;;;4.50;;
14052;SDS011;7101;51.600;7.310;2023-06-24T21:29:02;5.38;;;4.38;;
14052;SDS011;7101;51.600;7.310;2023-06-24T21:31:29;5.38;;;4.43;;
14052;SDS011;7101;51.600;7.310;2023-06-24T21:33:57;5.20;;;4.60;;
14052;SDS011;7101;51.600;7.310;2023-06-24T21:36:32;7.47;;;4.82;;
14052;SDS011;7101;51.600;7.310;2023-06-24T21:39:01;5.90;;;5.00;;
14052;SDS011;7101;51.600;7.310;2023-06-24T21:41:29;5.72;;;4.68;;
14052;SDS011;7101;51.600;7.310;2023-06-24T21:43:57;6.30;;;4.85;;
14052;SDS011;7101;51.600;7.310;2023-06-24T21:46:25;8.70;;;5.55;;
14052;SDS011;7101;51.600;7.310;2023-06-24T21:48:51;6.00;;;4.68;;
14052;SDS011;7101;51.600;7.310;2023-06-24T21:51:20;9.43;;;5.25;;
14052;SDS011;7101;51.600;7.310;2023-06-24T21:53:46;5.68;;;4.50;;
14052;SDS011;7101;51.600;7.310;2023-06-24T21:56:20;8.25;;;5.20;;
14052;SDS011;7101;51.600;7.310;2023-06-24T21:58:53;7.20;;;4.68;;
14052;SDS011;7101;51.600;7.310;2023-06-24T22:01:21;5.57;;;4.80;;
14052;SDS011;7101;51.600;7.310;2023-06-24T22:03:50;7.57;;;5.07;;
14052;SDS011;7101;51.600;7.310;2023-06-24T22:06:17;5.40;;;4.82;;
14052;SDS011;7101;51.600;7.310;2023-06-24T22:08:45;8.10;;;5.10;;
14052;SDS011;7101;51.600;7.310;2023-06-24T22:11:14;6.05;;;4.50;;
14052;SDS011;7101;51.600;7.310;2023-06-24T22:13:41;5.90;;;4.97;;
14052;SDS011;7101;51.600;7.310;2023-06-24T22:16:08;5.85;;;4.63;;
14052;SDS011;7101;51.600;7.310;2023-06-24T22:18:37;8.68;;;4.85;;
14052;SDS011;7101;51.600;7.310;2023-06-24T22:21:04;5.82;;;5.05;;
14052;SDS011;7101;51.600;7.310;2023-06-24T22:23:31;6.88;;;4.30;;
14052;SDS011;7101;51.600;7.310;2023-06-24T22:26:03;5.82;;;4.70;;
14052;SDS011;7101;51.600;7.310;2023-06-24T22:28:30;5.60;;;4.25;;
14052;SDS011;7101;51.600;7.310;2023-06-24T22:30:57;4.82;;;4.30;;
14052;SDS011;7101;51.600;7.310;2023-06-24T22:33:26;6.43;;;5.55;;
14052;SDS011;7101;51.600;7.310;2023-06-24T22:35:58;7.43;;;5.22;;
14052;SDS011;7101;51.600;7.310;2023-06-24T22:38:25;5.72;;;4.80;;
14052;SDS011;7101;51.600;7.310;2023-06-24T22:40:52;5.43;;;4.93;;
14052;SDS011;7101;51.600;7.310;2023-06-24T22:43:20;6.57;;;5.13;;
14052;SDS011;7101;51.600;7.310;2023-06-24T22:45:47;7.82;;;5.22;;
14052;SDS011;7101;51.600;7.310;2023-06-24T22:48:14;6.35;;;4.95;;
14052;SDS011;7101;51.600;7.310;2023-06-24T22:50:43;5.20;;;4.70;;
14052;SDS011;7101;51.600;7.310;2023-06-24T22:53:10;6.50;;;5.00;;
14052;SDS011;7101;51.600;7.310;2023-06-24T22:55:38;6.00;;;5.25;;
14052;SDS011;7101;51.600;7.310;2023-06-24T22:58:06;7.80;;;5.80;;
14052;SDS011;7101;51.600;7.310;2023-06-24T23:00:36;6.82;;;5.68;;
14052;SDS011;7101;51.600;7.310;2023-06-24T23:03:04;6.68;;;5.97;;
14052;SDS011;7101;51.600;7.310;2023-06-24T23:05:32;6.03;;;5.43;;
14052;SDS011;7101;51.600;7.310;2023-06-24T23:08:01;5.82;;;5.18;;
14052;SDS011;7101;51.600;7.310;2023-06-24T23:10:30;7.20;;;5.35;;